Time;durP1;ratioP1;P1;durP2;ratioP2;P2;SDS_P1;SDS_P2;PMS_P1;PMS_P2;Temp;Humidity;BMP_temperature;BMP_pressure;BME280_temperature;BME280_humidity;BME280_pressure;Samples;Min_cycle;Max_cycle;Signal;HPM_P1;HPM_P2
2022/03/13 00:01:39;;;;;;;46.48;37.78;;;27.40;84.60;;;;;;1899952;74;21073;-89
2022/03/13 00:04:13;;;;;;;43.87;36.83;;;27.40;83.90;;;;;;1907417;74;21148;-88
2022/03/13 00:06:44;;;;;;;48.20;38.20;;;27.30;84.50;;;;;;1904154;75;21185;-88
2022/03/13 00:09:15;;;;;;;49.20;37.13;;;27.30;84.20;;;;;;1890066;75;21516;-88
2022/03/13 00:11:46;;;;;;;47.15;36.80;;;27.30;84.20;;;;;;1899092;74;21158;-88
2022/03/13 00:14:20;;;;;;;42.62;36.05;;;27.30;84.30;;;;;;1902927;75;21119;-87
2022/03/13 00:16:50;;;;;;;50.65;39.40;;;27.30;83.40;;;;;;1899780;74;22079;-90
2022/03/13 00:19:22;;;;;;;48.00;36.58;;;27.30;84.10;;;;;;1907372;75;21132;-88
2022/03/13 00:21:55;;;;;;;49.73;37.17;;;27.30;84.40;;;;;;1905592;75;21131;-87
2022/03/13 00:24:25;;;;;;;52.40;36.33;;;27.30;83.90;;;;;;1893327;75;21154;-88
2022/03/13 00:26:56;;;;;;;44.45;33.92;;;27.30;84.20;;;;;;1905275;75;21217;-88
2022/03/13 00:29:27;;;;;;;43.25;35.73;;;27.30;83.90;;;;;;1915132;75;21119;-89
2022/03/13 00:31:59;;;;;;;46.58;34.75;;;27.30;83.50;;;;;;1909326;75;21491;-88
2022/03/13 00:34:29;;;;;;;44.70;32.70;;;27.30;83.60;;;;;;1895591;75;21131;-88
2022/03/13 00:37:01;;;;;;;48.90;34.67;;;27.30;83.30;;;;;;1913789;75;21253;-88
2022/03/13 00:39:32;;;;;;;41.08;32.50;;;27.30;83.10;;;;;;1901252;75;21167;-87
2022/03/13 00:42:03;;;;;;;44.77;35.10;;;27.30;83.10;;;;;;1904801;74;21060;-88
2022/03/13 00:44:34;;;;;;;47.73;35.33;;;27.30;83.10;;;;;;1809820;77;21155;-87
2022/03/13 00:47:06;;;;;;;49.30;36.25;;;27.40;83.30;;;;;;1906173;75;21129;-87
2022/03/13 00:49:37;;;;;;;45.10;34.35;;;27.40;83.10;;;;;;1915312;75;21349;-89
2022/03/13 00:52:07;;;;;;;45.73;34.63;;;27.40;82.90;;;;;;1913804;75;21174;-89
2022/03/13 00:54:38;;;;;;;45.70;34.63;;;27.50;82.80;;;;;;1911317;75;21119;-87
2022/03/13 00:57:09;;;;;;;45.23;35.05;;;27.40;82.90;;;;;;1910507;74;21681;-86
2022/03/13 00:59:40;;;;;;;46.20;34.80;;;27.40;83.20;;;;;;1906913;74;21167;-88
2022/03/13 01:02:11;;;;;;;44.40;32.17;;;27.50;82.90;;;;;;1904181;74;21645;-88
2022/03/13 01:04:42;;;;;;;39.90;32.53;;;27.50;82.40;;;;;;1913884;75;21163;-86
2022/03/13 01:07:15;;;;;;;46.88;33.02;;;27.50;82.40;;;;;;1899825;74;21184;-87
2022/03/13 01:09:46;;;;;;;44.38;34.78;;;27.50;82.60;;;;;;1905049;74;21151;-87
2022/03/13 01:12:16;;;;;;;44.15;33.08;;;27.50;82.30;;;;;;1906975;74;21183;-88
2022/03/13 01:14:48;;;;;;;40.52;31.17;;;27.60;81.60;;;;;;1914095;75;21161;-88
2022/03/13 01:17:20;;;;;;;37.17;29.87;;;27.70;81.10;;;;;;1901971;75;21162;-87
2022/03/13 01:19:51;;;;;;;37.42;28.90;;;27.70;80.80;;;;;;1901010;75;21163;-88
2022/03/13 01:22:22;;;;;;;39.30;30.57;;;27.70;80.70;;;;;;1907275;74;21104;-88
2022/03/13 01:24:53;;;;;;;42.45;33.65;;;27.80;80.10;;;;;;1901188;74;21133;-88
2022/03/13 01:27:24;;;;;;;36.20;28.73;;;27.90;80.10;;;;;;1908395;74;21142;-88
2022/03/13 01:29:57;;;;;;;37.85;29.10;;;27.90;79.80;;;;;;1903384;75;21580;-88
2022/03/13 01:32:31;;;;;;;35.15;29.15;;;28.00;79.10;;;;;;1902241;74;22008;-88
2022/03/13 01:35:00;;;;;;;37.95;29.23;;;28.00;79.10;;;;;;1910945;74;21815;-88
2022/03/13 01:37:32;;;;;;;33.40;27.45;;;28.10;79.00;;;;;;1893835;74;21194;-89
2022/03/13 01:40:05;;;;;;;35.80;26.57;;;28.20;78.80;;;;;;1894620;75;22244;-89
2022/03/13 01:42:36;;;;;;;35.60;26.65;;;28.20;78.10;;;;;;1903904;75;21646;-88
2022/03/13 01:45:08;;;;;;;36.85;27.48;;;28.20;78.10;;;;;;1910717;74;22342;-89
2022/03/13 01:47:39;;;;;;;33.58;27.85;;;28.30;78.30;;;;;;1902051;75;21221;-88
2022/03/13 01:50:12;;;;;;;33.35;27.75;;;28.30;78.10;;;;;;1829096;77;21289;-87
2022/03/13 01:52:45;;;;;;;38.33;28.17;;;28.40;78.10;;;;;;1867319;76;21139;-88
2022/03/13 01:55:17;;;;;;;35.23;28.77;;;28.50;77.80;;;;;;1821545;77;21596;-87
2022/03/13 01:57:49;;;;;;;38.55;30.05;;;28.50;77.40;;;;;;1817557;77;21148;-90
2022/03/13 02:00:20;;;;;;;38.35;31.10;;;28.40;77.50;;;;;;1898255;74;21135;-90
2022/03/13 02:02:52;;;;;;;39.70;30.62;;;28.50;78.60;;;;;;1905865;74;21708;-89
2022/03/13 02:05:26;;;;;;;37.42;30.32;;;28.50;78.10;;;;;;1878427;76;21167;-88
2022/03/13 02:07:57;;;;;;;34.15;28.55;;;28.50;78.00;;;;;;1904180;74;21592;-89
2022/03/13 02:10:27;;;;;;;36.65;30.62;;;28.50;77.90;;;;;;1894047;74;21230;-89
2022/03/13 02:12:58;;;;;;;40.45;30.68;;;28.60;77.90;;;;;;1904475;74;21577;-89
2022/03/13 02:15:32;;;;;;;38.85;30.72;;;28.70;77.80;;;;;;1896885;75;21135;-88
2022/03/13 02:18:04;;;;;;;39.20;30.30;;;28.70;77.80;;;;;;1905883;74;21151;-88
2022/03/13 02:20:37;;;;;;;36.88;30.70;;;28.80;77.60;;;;;;1905557;74;21076;-89
2022/03/13 02:23:10;;;;;;;42.30;31.62;;;28.90;77.60;;;;;;1900082;75;21201;-88
2022/03/13 02:25:41;;;;;;;43.20;33.55;;;28.90;77.60;;;;;;1893133;74;21173;-87
2022/03/13 02:28:17;;;;;;;39.92;32.23;;;29.00;77.60;;;;;;1890587;75;21192;-87
2022/03/13 02:30:46;;;;;;;43.17;33.53;;;29.00;77.50;;;;;;1906510;74;21217;-87
2022/03/13 02:33:20;;;;;;;40.65;33.18;;;29.10;77.60;;;;;;1912433;74;21115;-87
2022/03/13 02:35:53;;;;;;;45.12;34.05;;;29.20;77.90;;;;;;1906733;74;21214;-86
2022/03/13 02:38:25;;;;;;;39.78;31.45;;;29.30;77.70;;;;;;1866839;76;21200;-89
2022/03/13 02:40:57;;;;;;;42.17;32.78;;;29.40;77.50;;;;;;1819872;78;21144;-88
2022/03/13 02:43:29;;;;;;;42.60;32.73;;;29.50;77.60;;;;;;1902941;75;21099;-87
2022/03/13 02:46:02;;;;;;;42.78;33.95;;;29.50;77.40;;;;;;1902906;74;21145;-88
2022/03/13 02:48:33;;;;;;;42.85;33.78;;;29.60;77.10;;;;;;1902740;74;21163;-88
2022/03/13 02:51:03;;;;;;;42.93;33.38;;;29.70;77.10;;;;;;1906412;75;21435;-87
2022/03/13 02:53:34;;;;;;;45.25;33.73;;;29.80;77.10;;;;;;1893560;75;21185;-86
2022/03/13 02:56:06;;;;;;;42.67;34.73;;;29.90;77.00;;;;;;1902076;75;21698;-87
2022/03/13 02:58:37;;;;;;;41.40;33.13;;;29.90;76.70;;;;;;1898521;75;21202;-89
2022/03/13 03:01:09;;;;;;;47.45;34.25;;;30.00;76.10;;;;;;1893343;75;21653;-84
2022/03/13 03:03:40;;;;;;;42.43;33.73;;;30.10;76.10;;;;;;1898251;75;21131;-88
2022/03/13 03:06:13;;;;;;;44.85;34.70;;;30.20;76.20;;;;;;1824288;77;21144;-88
2022/03/13 03:08:44;;;;;;;42.62;34.05;;;30.30;75.80;;;;;;1858770;76;21198;-88
2022/03/13 03:11:15;;;;;;;42.38;34.03;;;30.50;75.10;;;;;;1866305;76;21084;-87
2022/03/13 03:13:46;;;;;;;46.35;34.70;;;30.60;74.80;;;;;;1910647;75;21221;-85
2022/03/13 03:16:17;;;;;;;42.23;33.98;;;30.70;74.70;;;;;;1902211;75;21115;-88
2022/03/13 03:18:53;;;;;;;38.40;32.60;;;30.80;74.60;;;;;;1904650;74;21123;-89
2022/03/13 03:21:23;;;;;;;42.08;34.13;;;30.90;74.00;;;;;;1908249;74;21123;-92
2022/03/13 03:23:54;;;;;;;42.08;34.65;;;31.00;73.30;;;;;;1898620;75;21692;-89
2022/03/13 03:26:25;;;;;;;48.73;34.03;;;31.10;73.00;;;;;;1889497;75;21205;-89
2022/03/13 03:28:59;;;;;;;44.40;34.15;;;31.10;73.00;;;;;;1894822;74;21181;-89
2022/03/13 03:31:28;;;;;;;42.65;33.70;;;31.20;72.70;;;;;;1904335;75;21548;-90
2022/03/13 03:34:10;;;;;;;44.63;34.63;;;31.30;72.90;;;;;;1866660;75;21154;-88
2022/03/13 03:36:42;;;;;;;43.78;35.30;;;31.40;72.10;;;;;;1898289;75;21122;-90
2022/03/13 03:39:24;;;;;;;40.50;33.90;;;31.50;71.50;;;;;;1907623;75;21119;-89
2022/03/13 03:41:52;;;;;;;41.23;32.20;;;31.70;71.40;;;;;;1885269;75;21131;-90
2022/03/13 03:44:23;;;;;;;41.18;33.18;;;31.80;70.70;;;;;;1908801;75;21248;-87
2022/03/13 03:46:55;;;;;;;40.65;33.85;;;31.90;70.20;;;;;;1915067;75;21493;-87
2022/03/13 03:49:26;;;;;;;40.15;32.63;;;32.00;70.10;;;;;;1906309;75;21099;-88
2022/03/13 03:51:56;;;;;;;36.25;32.15;;;32.10;69.90;;;;;;1902385;75;21115;-89
2022/03/13 03:54:27;;;;;;;41.90;33.13;;;32.20;69.30;;;;;;1903478;75;21178;-88
2022/03/13 03:57:01;;;;;;;41.30;33.05;;;32.20;69.60;;;;;;1908619;73;21149;-90
2022/03/13 03:59:32;;;;;;;40.58;32.93;;;32.30;68.80;;;;;;1914076;75;21196;-89
2022/03/13 04:02:02;;;;;;;41.33;32.15;;;32.40;69.20;;;;;;1868979;76;21127;-90
2022/03/13 04:04:33;;;;;;;43.00;32.55;;;32.40;69.40;;;;;;1900491;75;21065;-91
2022/03/13 04:07:04;;;;;;;40.52;31.73;;;32.50;68.80;;;;;;1901319;74;21183;-89
2022/03/13 04:09:36;;;;;;;37.15;30.95;;;32.60;66.90;;;;;;1858600;76;21222;-90
2022/03/13 04:12:08;;;;;;;39.67;32.50;;;32.70;67.60;;;;;;1902637;74;21086;-89
2022/03/13 04:14:40;;;;;;;40.40;32.25;;;32.80;68.40;;;;;;1874825;76;21167;-88
2022/03/13 04:17:11;;;;;;;41.55;32.10;;;32.80;66.90;;;;;;1896212;73;21075;-89
2022/03/13 04:19:42;;;;;;;37.38;31.27;;;33.00;66.60;;;;;;1891811;75;21141;-89
2022/03/13 04:22:27;;;;;;;;;;;;;;;;;;;;;
2022/03/13 04:24:48;;;;;;;35.43;28.75;;;33.10;64.20;;;;;;1818405;75;21183;-88
2022/03/13 04:27:19;;;;;;;35.90;29.10;;;33.20;63.00;;;;;;1904731;75;21115;-88
2022/03/13 04:29:51;;;;;;;36.28;29.18;;;33.30;64.30;;;;;;1897888;74;21278;-88
2022/03/13 04:32:23;;;;;;;35.20;30.08;;;33.30;63.90;;;;;;1905801;74;21202;-89
2022/03/13 04:34:56;;;;;;;32.53;28.55;;;33.30;64.10;;;;;;1905493;75;21135;-90
2022/03/13 04:37:32;;;;;;;40.60;29.40;;;33.40;63.00;;;;;;1904590;74;21195;-90
2022/03/13 04:40:09;;;;;;;40.67;30.90;;;33.50;63.60;;;;;;1897488;73;21241;-89
2022/03/13 04:42:40;;;;;;;36.08;30.35;;;33.70;63.30;;;;;;1888514;75;21271;-89
2022/03/13 04:45:13;;;;;;;40.00;30.62;;;33.70;62.20;;;;;;1906937;74;21230;-88
2022/03/13 04:47:44;;;;;;;35.90;30.62;;;33.80;62.60;;;;;;1910907;74;21053;-89
2022/03/13 04:50:15;;;;;;;38.05;30.43;;;33.90;63.60;;;;;;1904606;75;21630;-90
2022/03/13 04:52:50;;;;;;;34.48;30.75;;;33.90;61.60;;;;;;1903785;74;21638;-87
2022/03/13 04:55:24;;;;;;;35.90;28.07;;;34.00;61.30;;;;;;1894909;75;21618;-89
2022/03/13 04:57:59;;;;;;;41.02;30.00;;;34.00;61.30;;;;;;1892855;75;21673;-91
2022/03/13 05:00:31;;;;;;;32.50;29.00;;;34.00;60.30;;;;;;1907505;74;21076;-90
2022/03/13 05:03:05;;;;;;;38.17;28.80;;;34.10;59.90;;;;;;1903313;74;21123;-90
2022/03/13 05:05:40;;;;;;;36.63;29.87;;;34.10;60.40;;;;;;1902321;75;21134;-89
2022/03/13 05:08:16;;;;;;;35.25;29.85;;;34.10;62.20;;;;;;1895252;74;21129;-88
2022/03/13 05:10:54;;;;;;;37.60;29.80;;;34.10;63.40;;;;;;1902061;75;21147;-88
2022/03/13 05:13:21;;;;;;;36.98;28.90;;;34.20;61.40;;;;;;1909276;75;21166;-88
2022/03/13 05:15:52;;;;;;;35.80;28.65;;;34.20;60.50;;;;;;1901894;74;21123;-87
2022/03/13 05:18:23;;;;;;;31.45;27.30;;;34.40;61.00;;;;;;1905802;75;21163;-91
2022/03/13 05:20:54;;;;;;;39.05;29.23;;;34.50;60.30;;;;;;1908482;75;21177;-88
2022/03/13 05:23:24;;;;;;;37.50;28.92;;;34.50;59.40;;;;;;1908511;75;21186;-88
2022/03/13 05:25:55;;;;;;;33.63;28.98;;;34.50;60.70;;;;;;1890731;74;21068;-90
2022/03/13 05:28:26;;;;;;;34.92;29.00;;;34.60;60.30;;;;;;1887582;75;21585;-88
2022/03/13 05:30:57;;;;;;;32.45;28.98;;;34.60;60.60;;;;;;1869799;76;21151;-88
2022/03/13 05:33:30;;;;;;;35.25;29.27;;;34.70;60.30;;;;;;1914490;74;21137;-88
2022/03/13 05:36:01;;;;;;;37.35;28.92;;;34.70;60.10;;;;;;1902542;74;21543;-88
2022/03/13 05:38:34;;;;;;;32.95;28.25;;;34.70;60.70;;;;;;1865602;76;21209;-89
2022/03/13 05:41:06;;;;;;;32.67;27.67;;;34.70;59.70;;;;;;1831947;77;21642;-87
2022/03/13 05:43:37;;;;;;;38.42;28.38;;;34.80;57.50;;;;;;1893825;75;21198;-84
2022/03/13 05:46:08;;;;;;;34.05;28.25;;;34.80;58.60;;;;;;1910927;75;21159;-87
2022/03/13 05:48:39;;;;;;;31.37;27.70;;;34.90;59.10;;;;;;1918448;74;21179;-86
2022/03/13 05:51:10;;;;;;;31.70;26.73;;;34.90;59.10;;;;;;1915168;75;21124;-89
2022/03/13 05:53:41;;;;;;;35.75;28.12;;;35.00;58.90;;;;;;1876690;76;21128;-90
2022/03/13 05:56:12;;;;;;;29.15;26.07;;;35.00;59.30;;;;;;1869339;76;21717;-89
2022/03/13 05:58:43;;;;;;;32.53;26.77;;;34.90;57.90;;;;;;1893772;75;21135;-89
2022/03/13 06:01:13;;;;;;;28.87;25.68;;;34.90;57.80;;;;;;1900985;73;21151;-87
2022/03/13 06:03:46;;;;;;;31.97;27.05;;;34.90;59.20;;;;;;1908653;75;21123;-88
2022/03/13 06:06:17;;;;;;;32.25;28.50;;;35.00;58.00;;;;;;1899745;75;21155;-87
2022/03/13 06:08:48;;;;;;;30.37;26.95;;;35.00;58.30;;;;;;1889004;75;21755;-88
2022/03/13 06:11:18;;;;;;;33.42;27.75;;;35.10;58.30;;;;;;1903277;75;21136;-90
2022/03/13 06:13:49;;;;;;;33.23;28.10;;;35.20;59.00;;;;;;1903280;74;21095;-89
2022/03/13 06:16:21;;;;;;;34.65;27.73;;;35.20;57.70;;;;;;1838052;76;21594;-88
2022/03/13 06:18:52;;;;;;;31.93;28.52;;;35.20;58.10;;;;;;1827260;76;21112;-88
2022/03/13 06:21:22;;;;;;;37.93;27.32;;;35.20;58.60;;;;;;1839830;77;21179;-88
2022/03/13 06:23:53;;;;;;;35.73;28.00;;;35.20;58.20;;;;;;1828697;77;21145;-87
2022/03/13 06:26:24;;;;;;;30.50;27.35;;;35.20;58.20;;;;;;1907412;75;21154;-88
2022/03/13 06:28:55;;;;;;;31.73;28.07;;;35.30;57.70;;;;;;1906905;75;21154;-88
2022/03/13 06:31:26;;;;;;;30.97;25.12;;;35.30;57.20;;;;;;1899862;74;21791;-88
2022/03/13 06:33:58;;;;;;;32.88;25.70;;;35.40;58.50;;;;;;1900759;74;21123;-88
2022/03/13 06:36:29;;;;;;;31.65;27.00;;;35.40;57.30;;;;;;1894014;74;21130;-90
2022/03/13 06:39:00;;;;;;;25.97;23.42;;;35.40;56.50;;;;;;1897164;75;21190;-89
2022/03/13 06:41:31;;;;;;;31.35;26.20;;;35.40;56.50;;;;;;1892730;74;21512;-88
2022/03/13 06:44:01;;;;;;;32.55;26.15;;;35.50;55.90;;;;;;1900374;74;21595;-89
2022/03/13 06:46:32;;;;;;;29.23;26.05;;;35.50;54.90;;;;;;1902023;74;21163;-91
2022/03/13 06:49:05;;;;;;;30.00;26.25;;;35.60;55.80;;;;;;1899981;74;21169;-87
2022/03/13 06:51:38;;;;;;;29.87;26.07;;;35.60;56.30;;;;;;1904803;74;21245;-89
2022/03/13 06:54:11;;;;;;;29.25;25.88;;;35.60;55.50;;;;;;1893980;74;21198;-88
2022/03/13 06:56:42;;;;;;;30.75;26.07;;;35.60;55.30;;;;;;1887854;75;21123;-88
2022/03/13 06:59:12;;;;;;;29.92;25.95;;;35.60;55.60;;;;;;1884936;75;21170;-89
2022/03/13 07:01:43;;;;;;;34.25;26.57;;;35.70;55.00;;;;;;1914448;73;21052;-89
2022/03/13 07:04:14;;;;;;;27.27;24.47;;;35.70;54.40;;;;;;1907918;75;21068;-88
2022/03/13 07:06:47;;;;;;;27.70;24.43;;;35.70;53.60;;;;;;1910845;75;21716;-89
2022/03/13 07:09:17;;;;;;;30.80;25.15;;;35.70;53.90;;;;;;1895562;75;21112;-89
2022/03/13 07:11:49;;;;;;;30.12;24.87;;;35.70;53.40;;;;;;1901281;74;21073;-89
2022/03/13 07:14:21;;;;;;;29.40;23.85;;;35.80;53.60;;;;;;1909329;73;21139;-89
2022/03/13 07:16:52;;;;;;;28.17;24.35;;;35.80;52.50;;;;;;1897677;74;21526;-88
2022/03/13 07:19:23;;;;;;;28.42;24.50;;;35.80;54.00;;;;;;1902457;74;21107;-88
2022/03/13 07:21:53;;;;;;;26.52;23.70;;;35.80;52.60;;;;;;1910358;74;21272;-89
2022/03/13 07:24:24;;;;;;;28.02;25.02;;;35.70;52.70;;;;;;1909045;73;21075;-86
2022/03/13 07:26:55;;;;;;;29.57;23.85;;;35.70;52.20;;;;;;1905614;73;21551;-86
2022/03/13 07:29:27;;;;;;;27.58;24.07;;;35.70;52.00;;;;;;1906299;75;21100;-89
2022/03/13 07:31:59;;;;;;;25.08;22.58;;;35.60;52.30;;;;;;1911141;74;21126;-90
2022/03/13 07:34:30;;;;;;;26.80;22.82;;;35.60;51.10;;;;;;1906536;75;21189;-88
2022/03/13 07:37:01;;;;;;;28.60;24.30;;;35.60;50.90;;;;;;1902903;74;21108;-89
2022/03/13 07:39:31;;;;;;;27.02;24.23;;;35.50;52.90;;;;;;1903331;75;21112;-89
2022/03/13 07:42:02;;;;;;;26.00;23.30;;;35.60;52.30;;;;;;1887788;75;21135;-88
2022/03/13 07:44:33;;;;;;;26.62;23.12;;;35.40;51.10;;;;;;1905691;73;21662;-90
2022/03/13 07:47:04;;;;;;;26.37;23.57;;;35.40;51.30;;;;;;1907864;74;21195;-91
2022/03/13 07:49:36;;;;;;;27.32;24.35;;;35.50;52.40;;;;;;1903670;74;21632;-90
2022/03/13 07:52:07;;;;;;;27.67;23.83;;;35.50;51.90;;;;;;1896755;74;21088;-90
2022/03/13 07:54:38;;;;;;;26.00;23.30;;;35.50;51.50;;;;;;1907999;74;21631;-88
2022/03/13 07:57:09;;;;;;;24.90;22.40;;;35.50;51.20;;;;;;1917025;75;21081;-89
2022/03/13 07:59:39;;;;;;;27.15;24.23;;;35.40;50.80;;;;;;1910862;74;21142;-89
2022/03/13 08:02:13;;;;;;;27.15;24.25;;;35.40;52.10;;;;;;1912738;73;21208;-89
2022/03/13 08:04:43;;;;;;;28.47;25.35;;;35.40;53.00;;;;;;1902698;74;21625;-89
2022/03/13 08:07:14;;;;;;;30.88;25.62;;;35.40;53.20;;;;;;1911512;75;21111;-89
2022/03/13 08:09:44;;;;;;;26.85;24.05;;;35.30;53.60;;;;;;1913239;75;21101;-88
2022/03/13 08:12:15;;;;;;;28.12;23.67;;;35.30;52.70;;;;;;1911148;75;21527;-89
2022/03/13 08:14:46;;;;;;;29.02;23.30;;;35.30;51.80;;;;;;1912843;73;21200;-89
2022/03/13 08:17:17;;;;;;;26.70;24.00;;;35.30;51.50;;;;;;1905328;75;21225;-90
2022/03/13 08:19:49;;;;;;;27.48;24.55;;;35.30;52.50;;;;;;1911056;74;21189;-89
2022/03/13 08:22:20;;;;;;;30.97;23.90;;;35.20;52.70;;;;;;1905156;75;21746;-89
2022/03/13 08:24:51;;;;;;;27.93;24.90;;;35.20;52.90;;;;;;1902026;74;21264;-89
2022/03/13 08:27:22;;;;;;;34.33;27.37;;;35.10;53.80;;;;;;1903075;75;21225;-86
2022/03/13 08:29:53;;;;;;;32.95;27.48;;;35.20;54.80;;;;;;1905538;75;21154;-90
2022/03/13 08:32:24;;;;;;;28.55;25.37;;;35.20;55.40;;;;;;1907327;74;21099;-93
2022/03/13 08:34:56;;;;;;;28.17;23.40;;;35.20;55.20;;;;;;1910598;73;21831;-92
2022/03/13 08:37:27;;;;;;;28.90;25.40;;;35.20;55.30;;;;;;1914112;75;21072;-91
2022/03/13 08:39:58;;;;;;;30.25;26.20;;;35.20;54.60;;;;;;1913013;75;21200;-90
2022/03/13 08:42:33;;;;;;;28.25;25.20;;;35.10;54.60;;;;;;1914953;75;21135;-87
2022/03/13 08:45:05;;;;;;;27.85;24.85;;;35.10;54.80;;;;;;1906483;74;21194;-88
2022/03/13 08:47:35;;;;;;;28.75;25.68;;;35.10;55.00;;;;;;1905691;74;21177;-88
2022/03/13 08:50:08;;;;;;;30.25;27.15;;;35.10;54.80;;;;;;1888241;73;21145;-89
2022/03/13 08:52:39;;;;;;;28.10;24.57;;;35.10;54.70;;;;;;1896960;75;21591;-89
2022/03/13 08:55:13;;;;;;;27.52;24.65;;;35.10;54.60;;;;;;1892670;75;21155;-88
2022/03/13 08:57:44;;;;;;;27.17;24.30;;;35.10;54.60;;;;;;1825117;77;21159;-88
2022/03/13 09:00:19;;;;;;;30.25;25.30;;;35.10;54.90;;;;;;1855257;76;21155;-88
2022/03/13 09:02:50;;;;;;;27.75;24.95;;;35.00;54.40;;;;;;1865516;76;21463;-89
2022/03/13 09:05:21;;;;;;;30.02;25.15;;;35.00;54.20;;;;;;1886515;73;21190;-88
2022/03/13 09:07:52;;;;;;;29.80;24.65;;;34.90;53.90;;;;;;1914437;74;21163;-87
2022/03/13 09:10:28;;;;;;;27.35;24.35;;;34.90;54.40;;;;;;1918354;75;21654;-89
2022/03/13 09:12:56;;;;;;;26.33;23.65;;;34.80;54.10;;;;;;1914559;73;21161;-87
2022/03/13 09:15:29;;;;;;;26.33;23.52;;;34.80;54.50;;;;;;1905663;73;21209;-89
2022/03/13 09:18:02;;;;;;;26.95;24.07;;;34.80;54.20;;;;;;1902377;75;21167;-89
2022/03/13 09:20:35;;;;;;;26.20;22.58;;;34.80;53.60;;;;;;1905838;73;21069;-89
2022/03/13 09:23:09;;;;;;;26.30;23.57;;;34.70;53.30;;;;;;1889108;75;21199;-89
2022/03/13 09:25:38;;;;;;;26.50;23.65;;;34.70;53.50;;;;;;1912050;74;21126;-88
2022/03/13 09:28:09;;;;;;;27.07;23.83;;;34.70;53.80;;;;;;1907074;73;21153;-89
2022/03/13 09:30:40;;;;;;;26.68;23.83;;;34.60;53.60;;;;;;1913938;75;21115;-89
2022/03/13 09:33:12;;;;;;;25.52;23.07;;;34.60;53.50;;;;;;1904665;75;21024;-89
2022/03/13 09:35:44;;;;;;;26.80;23.95;;;34.60;53.00;;;;;;1909830;73;21166;-87
2022/03/13 09:38:16;;;;;;;27.30;23.55;;;34.60;53.10;;;;;;1910238;75;21183;-89
2022/03/13 09:40:47;;;;;;;31.87;25.35;;;34.50;53.40;;;;;;1857960;76;21195;-89
2022/03/13 09:43:19;;;;;;;28.07;23.85;;;34.50;53.50;;;;;;1888835;74;21072;-90
2022/03/13 09:45:50;;;;;;;26.65;23.52;;;34.40;52.80;;;;;;1898333;75;21169;-90
2022/03/13 09:48:21;;;;;;;24.67;22.07;;;34.40;53.10;;;;;;1896364;75;21108;-89
2022/03/13 09:50:54;;;;;;;25.08;22.50;;;34.40;52.90;;;;;;1906270;75;21170;-88
2022/03/13 09:53:25;;;;;;;25.43;23.02;;;34.40;52.60;;;;;;1907485;75;21136;-89
2022/03/13 09:55:56;;;;;;;26.02;23.22;;;34.40;53.10;;;;;;1908259;73;21204;-91
2022/03/13 09:58:27;;;;;;;24.72;22.07;;;34.40;53.40;;;;;;1912061;75;21069;-89
2022/03/13 10:00:58;;;;;;;25.77;22.10;;;34.40;52.60;;;;;;1909484;75;21138;-88
2022/03/13 10:03:30;;;;;;;25.62;22.95;;;34.40;52.60;;;;;;1907543;73;21115;-88
2022/03/13 10:06:01;;;;;;;24.47;22.00;;;34.30;52.70;;;;;;1902065;74;21189;-89
2022/03/13 10:08:33;;;;;;;26.10;23.27;;;34.30;52.70;;;;;;1902067;74;21133;-88
2022/03/13 10:11:03;;;;;;;24.02;20.55;;;34.20;52.60;;;;;;1881775;75;21124;-90
2022/03/13 10:13:36;;;;;;;25.40;20.75;;;34.20;52.00;;;;;;1861775;76;21190;-86
2022/03/13 10:16:10;;;;;;;25.55;22.95;;;34.20;51.90;;;;;;1907263;75;21110;-91
2022/03/13 10:18:41;;;;;;;24.95;22.35;;;34.20;52.10;;;;;;1900241;75;21092;-87
2022/03/13 10:21:16;;;;;;;25.35;22.65;;;34.10;52.50;;;;;;1883923;76;21060;-89
2022/03/13 10:23:49;;;;;;;25.27;21.48;;;34.10;52.40;;;;;;1897079;74;21110;-90
2022/03/13 10:26:19;;;;;;;24.02;21.60;;;34.10;52.20;;;;;;1912697;73;21191;-87
2022/03/13 10:28:49;;;;;;;22.58;20.27;;;34.00;51.60;;;;;;1917125;75;21103;-88
2022/03/13 10:31:20;;;;;;;22.55;20.32;;;34.00;51.70;;;;;;1910713;75;21081;-89
2022/03/13 10:33:55;;;;;;;22.60;20.35;;;34.00;51.30;;;;;;1914216;74;21745;-89
2022/03/13 10:36:44;;;;;;;23.35;20.95;;;34.00;51.50;;;;;;1909608;75;21111;-89
2022/03/13 10:39:02;;;;;;;24.40;21.80;;;33.90;51.50;;;;;;1889452;74;22536;-89
2022/03/13 10:41:42;;;;;;;25.27;22.35;;;33.90;51.90;;;;;;1904309;74;21512;-90
2022/03/13 10:44:11;;;;;;;23.83;21.25;;;33.80;51.60;;;;;;1913839;75;21619;-89
2022/03/13 10:46:43;;;;;;;24.67;21.65;;;33.80;52.10;;;;;;1916577;75;21151;-90
2022/03/13 10:49:14;;;;;;;25.25;21.12;;;33.80;52.20;;;;;;1893746;74;21201;-91
2022/03/13 10:51:48;;;;;;;24.18;20.25;;;33.70;52.20;;;;;;1880186;76;21139;-90
2022/03/13 10:54:21;;;;;;;23.62;21.17;;;33.70;52.10;;;;;;1819064;78;21483;-91
2022/03/13 10:56:54;;;;;;;24.77;22.27;;;33.70;52.10;;;;;;1861766;76;21206;-90
2022/03/13 10:59:25;;;;;;;23.80;21.40;;;33.70;52.50;;;;;;1863961;76;21265;-91
2022/03/13 11:01:58;;;;;;;24.50;21.75;;;33.70;52.80;;;;;;1873489;76;21143;-90
2022/03/13 11:04:29;;;;;;;24.47;22.13;;;33.60;52.70;;;;;;1901793;74;21139;-89
2022/03/13 11:06:59;;;;;;;25.15;22.45;;;33.60;53.00;;;;;;1898879;75;21606;-90
2022/03/13 11:09:30;;;;;;;26.68;23.92;;;33.50;53.10;;;;;;1853996;76;21163;-89
2022/03/13 11:12:09;;;;;;;25.52;22.87;;;33.50;53.20;;;;;;1897702;75;21227;-89
2022/03/13 11:14:34;;;;;;;26.87;23.32;;;33.50;53.20;;;;;;1897364;74;21080;-89
2022/03/13 11:17:07;;;;;;;24.85;22.27;;;33.40;53.30;;;;;;1892414;75;21133;-89
2022/03/13 11:19:40;;;;;;;27.52;24.27;;;33.40;53.20;;;;;;1905549;75;21139;-89
2022/03/13 11:22:10;;;;;;;25.62;22.73;;;33.40;53.40;;;;;;1892003;75;21439;-89
2022/03/13 11:24:41;;;;;;;28.12;23.52;;;33.40;53.20;;;;;;1901476;73;21220;-87
2022/03/13 11:27:13;;;;;;;31.02;23.38;;;33.40;53.30;;;;;;1895942;75;21147;-89
2022/03/13 11:29:46;;;;;;;29.23;22.02;;;33.30;53.30;;;;;;1901365;74;21096;-88
2022/03/13 11:32:19;;;;;;;26.70;23.32;;;33.30;53.20;;;;;;1887563;74;21143;-90
2022/03/13 11:34:52;;;;;;;27.52;23.38;;;33.30;53.40;;;;;;1884992;75;21163;-91
2022/03/13 11:37:32;;;;;;;26.45;23.35;;;33.30;53.70;;;;;;1893207;74;21127;-89
2022/03/13 11:40:04;;;;;;;29.70;24.45;;;33.20;53.80;;;;;;1906229;74;21080;-89
2022/03/13 11:42:43;;;;;;;26.30;23.47;;;33.20;54.00;;;;;;1905309;75;21158;-90
2022/03/13 11:45:16;;;;;;;26.23;23.47;;;33.20;54.10;;;;;;1893753;74;21084;-90
2022/03/13 11:47:47;;;;;;;25.70;23.02;;;33.20;54.00;;;;;;1910188;74;21139;-89
2022/03/13 11:50:19;;;;;;;27.50;23.92;;;33.20;54.00;;;;;;1900369;74;21100;-89
2022/03/13 11:52:51;;;;;;;26.93;23.32;;;33.20;54.00;;;;;;1910409;75;21147;-89
2022/03/13 11:55:23;;;;;;;26.62;23.83;;;33.10;54.00;;;;;;1910284;75;21138;-88
2022/03/13 11:57:58;;;;;;;28.20;24.15;;;33.10;54.10;;;;;;1891434;75;21205;-89
2022/03/13 12:00:30;;;;;;;26.15;23.60;;;33.10;54.10;;;;;;1899539;75;21563;-89
2022/03/13 12:03:05;;;;;;;29.75;25.30;;;33.10;54.20;;;;;;1900402;75;21528;-87
2022/03/13 12:05:37;;;;;;;28.77;24.82;;;33.10;54.50;;;;;;1913995;74;21611;-89
2022/03/13 12:08:13;;;;;;;35.35;28.05;;;33.10;54.40;;;;;;1916836;75;21133;-88
2022/03/13 12:10:43;;;;;;;28.42;25.52;;;33.10;54.60;;;;;;1904789;74;21091;-90
2022/03/13 12:13:20;;;;;;;31.45;25.90;;;33.00;54.50;;;;;;1906372;74;21151;-90
2022/03/13 12:16:17;;;;;;;31.57;25.12;;;33.10;54.70;;;;;;1899025;74;21153;-90
2022/03/13 12:18:42;;;;;;;29.48;24.92;;;33.00;54.60;;;;;;1903627;74;21175;-90
2022/03/13 12:21:18;;;;;;;27.32;24.43;;;33.00;55.00;;;;;;1900257;74;21678;-89
2022/03/13 12:23:48;;;;;;;27.00;24.10;;;33.00;55.00;;;;;;1905201;75;21135;-88
2022/03/13 12:26:24;;;;;;;28.35;24.70;;;33.00;55.20;;;;;;1908088;75;21197;-88
2022/03/13 12:28:57;;;;;;;29.35;24.82;;;32.90;55.20;;;;;;1902609;74;21217;-88
2022/03/13 12:31:30;;;;;;;27.32;24.00;;;32.90;55.20;;;;;;1908259;75;21201;-88
2022/03/13 12:34:01;;;;;;;28.65;24.20;;;32.90;55.30;;;;;;1865661;76;21122;-89
2022/03/13 12:36:35;;;;;;;30.15;24.95;;;32.90;55.50;;;;;;1865321;76;21148;-90
2022/03/13 12:39:11;;;;;;;31.55;25.12;;;32.80;55.60;;;;;;1870299;76;21734;-89
2022/03/13 12:41:41;;;;;;;31.95;25.52;;;32.80;55.60;;;;;;1858007;76;21108;-88
2022/03/13 12:44:15;;;;;;;30.88;24.77;;;32.80;55.60;;;;;;1907399;75;21072;-91
2022/03/13 12:46:51;;;;;;;27.95;24.85;;;32.80;55.60;;;;;;1898613;75;21182;-90
2022/03/13 12:49:24;;;;;;;32.78;26.30;;;32.80;56.00;;;;;;1899871;74;21108;-88
2022/03/13 12:51:57;;;;;;;28.87;25.90;;;32.80;56.20;;;;;;1909049;74;21124;-90